sensor_id;sensor_type;location;lat;lon;timestamp;P1;durP1;ratioP1;P2;durP2;ratioP2
29908;SDS011;36247;51.952;6.146;2023-07-13T00:01:14;10.95;;;3.63;;
29908;SDS011;36247;51.952;6.146;2023-07-13T00:03:41;4.82;;;2.60;;
29908;SDS011;36247;51.952;6.146;2023-07-13T00:06:08;8.70;;;3.15;;
29908;SDS011;36247;51.952;6.146;2023-07-13T00:08:34;8.07;;;2.85;;
29908;SDS011;36247;51.952;6.146;2023-07-13T00:11:03;9.05;;;3.58;;
29908;SDS011;36247;51.952;6.146;2023-07-13T00:13:29;7.03;;;2.58;;
29908;SDS011;36247;51.952;6.146;2023-07-13T00:15:59;8.68;;;3.00;;
29908;SDS011;36247;51.952;6.146;2023-07-13T00:18:26;7.68;;;3.03;;
29908;SDS011;36247;51.952;6.146;2023-07-13T00:20:58;9.60;;;3.17;;
29908;SDS011;36247;51.952;6.146;2023-07-13T00:23:33;6.45;;;2.80;;
29908;SDS011;36247;51.952;6.146;2023-07-13T00:26:00;11.27;;;3.83;;
29908;SDS011;36247;51.952;6.146;2023-07-13T00:28:32;6.28;;;2.88;;
29908;SDS011;36247;51.952;6.146;2023-07-13T00:31:02;8.07;;;3.00;;
29908;SDS011;36247;51.952;6.146;2023-07-13T00:33:31;7.03;;;2.67;;
29908;SDS011;36247;51.952;6.146;2023-07-13T00:36:04;10.60;;;3.03;;
29908;SDS011;36247;51.952;6.146;2023-07-13T00:38:30;10.30;;;3.08;;
29908;SDS011;36247;51.952;6.146;2023-07-13T00:40:56;9.15;;;3.10;;
29908;SDS011;36247;51.952;6.146;2023-07-13T00:46:21;11.65;;;3.05;;
29908;SDS011;36247;51.952;6.146;2023-07-13T00:48:52;14.85;;;3.35;;
29908;SDS011;36247;51.952;6.146;2023-07-13T00:51:25;9.70;;;2.95;;
29908;SDS011;36247;51.952;6.146;2023-07-13T00:53:58;8.63;;;2.88;;
29908;SDS011;36247;51.952;6.146;2023-07-13T00:56:37;8.88;;;2.90;;
29908;SDS011;36247;51.952;6.146;2023-07-13T00:59:08;7.10;;;2.47;;
29908;SDS011;36247;51.952;6.146;2023-07-13T01:01:45;7.78;;;2.70;;
29908;SDS011;36247;51.952;6.146;2023-07-13T01:04:11;10.60;;;2.72;;
29908;SDS011;36247;51.952;6.146;2023-07-13T01:06:38;10.82;;;3.95;;
29908;SDS011;36247;51.952;6.146;2023-07-13T01:09:09;7.45;;;2.88;;
29908;SDS011;36247;51.952;6.146;2023-07-13T01:11:53;9.25;;;2.60;;
29908;SDS011;36247;51.952;6.146;2023-07-13T01:14:24;10.32;;;2.70;;
29908;SDS011;36247;51.952;6.146;2023-07-13T01:17:00;11.68;;;2.95;;
29908;SDS011;36247;51.952;6.146;2023-07-13T01:26:43;9.15;;;3.15;;
29908;SDS011;36247;51.952;6.146;2023-07-13T01:29:18;6.88;;;3.33;;
29908;SDS011;36247;51.952;6.146;2023-07-13T01:31:49;12.38;;;3.17;;
29908;SDS011;36247;51.952;6.146;2023-07-13T01:34:16;6.88;;;2.72;;
29908;SDS011;36247;51.952;6.146;2023-07-13T01:36:42;15.52;;;3.75;;
29908;SDS011;36247;51.952;6.146;2023-07-13T01:39:08;11.20;;;3.20;;
29908;SDS011;36247;51.952;6.146;2023-07-13T01:41:34;10.68;;;3.08;;
29908;SDS011;36247;51.952;6.146;2023-07-13T01:44:00;12.23;;;3.80;;
29908;SDS011;36247;51.952;6.146;2023-07-13T01:46:26;7.50;;;3.22;;
29908;SDS011;36247;51.952;6.146;2023-07-13T01:48:52;9.95;;;4.03;;
29908;SDS011;36247;51.952;6.146;2023-07-13T01:51:19;6.80;;;3.60;;
29908;SDS011;36247;51.952;6.146;2023-07-13T01:54:00;11.25;;;4.60;;
29908;SDS011;36247;51.952;6.146;2023-07-13T01:56:26;8.48;;;3.10;;
29908;SDS011;36247;51.952;6.146;2023-07-13T01:58:52;11.30;;;3.70;;
29908;SDS011;36247;51.952;6.146;2023-07-13T02:01:18;10.32;;;4.30;;
29908;SDS011;36247;51.952;6.146;2023-07-13T02:03:44;10.95;;;4.40;;
29908;SDS011;36247;51.952;6.146;2023-07-13T02:06:11;12.48;;;4.40;;
29908;SDS011;36247;51.952;6.146;2023-07-13T02:08:37;12.23;;;3.95;;
29908;SDS011;36247;51.952;6.146;2023-07-13T02:11:03;13.00;;;4.10;;
29908;SDS011;36247;51.952;6.146;2023-07-13T02:13:30;13.07;;;4.25;;
29908;SDS011;36247;51.952;6.146;2023-07-13T02:15:56;10.15;;;4.25;;
29908;SDS011;36247;51.952;6.146;2023-07-13T02:18:22;10.75;;;4.63;;
29908;SDS011;36247;51.952;6.146;2023-07-13T02:20:50;12.23;;;4.80;;
29908;SDS011;36247;51.952;6.146;2023-07-13T02:23:18;11.13;;;4.00;;
29908;SDS011;36247;51.952;6.146;2023-07-13T02:25:46;12.82;;;4.55;;
29908;SDS011;36247;51.952;6.146;2023-07-13T02:28:14;12.65;;;4.10;;
29908;SDS011;36247;51.952;6.146;2023-07-13T02:30:49;11.13;;;4.30;;
29908;SDS011;36247;51.952;6.146;2023-07-13T02:33:17;9.25;;;4.13;;
29908;SDS011;36247;51.952;6.146;2023-07-13T02:35:44;9.75;;;4.13;;
29908;SDS011;36247;51.952;6.146;2023-07-13T02:38:13;11.40;;;4.53;;
29908;SDS011;36247;51.952;6.146;2023-07-13T02:40:41;11.00;;;4.20;;
29908;SDS011;36247;51.952;6.146;2023-07-13T02:43:08;13.95;;;4.40;;
29908;SDS011;36247;51.952;6.146;2023-07-13T02:45:34;11.00;;;4.55;;
29908;SDS011;36247;51.952;6.146;2023-07-13T02:48:02;11.73;;;4.40;;
29908;SDS011;36247;51.952;6.146;2023-07-13T02:50:31;8.90;;;4.20;;
29908;SDS011;36247;51.952;6.146;2023-07-13T02:52:57;10.65;;;4.50;;
29908;SDS011;36247;51.952;6.146;2023-07-13T02:55:26;12.30;;;4.18;;
29908;SDS011;36247;51.952;6.146;2023-07-13T02:57:57;11.23;;;4.13;;
29908;SDS011;36247;51.952;6.146;2023-07-13T03:00:24;10.80;;;4.68;;
29908;SDS011;36247;51.952;6.146;2023-07-13T03:02:50;11.00;;;4.07;;
29908;SDS011;36247;51.952;6.146;2023-07-13T03:05:16;11.00;;;4.38;;
29908;SDS011;36247;51.952;6.146;2023-07-13T03:07:43;8.40;;;4.20;;
29908;SDS011;36247;51.952;6.146;2023-07-13T03:10:14;15.57;;;4.70;;
29908;SDS011;36247;51.952;6.146;2023-07-13T03:12:46;16.73;;;5.28;;
29908;SDS011;36247;51.952;6.146;2023-07-13T03:15:20;9.13;;;4.05;;
29908;SDS011;36247;51.952;6.146;2023-07-13T03:17:49;8.98;;;4.32;;
29908;SDS011;36247;51.952;6.146;2023-07-13T03:20:15;12.50;;;5.22;;
29908;SDS011;36247;51.952;6.146;2023-07-13T03:22:41;12.73;;;5.43;;
29908;SDS011;36247;51.952;6.146;2023-07-13T03:25:09;11.93;;;4.10;;
29908;SDS011;36247;51.952;6.146;2023-07-13T03:27:38;16.58;;;4.65;;
29908;SDS011;36247;51.952;6.146;2023-07-13T03:30:07;11.25;;;4.53;;
29908;SDS011;36247;51.952;6.146;2023-07-13T03:32:49;15.43;;;4.53;;
29908;SDS011;36247;51.952;6.146;2023-07-13T03:35:16;14.63;;;5.78;;
29908;SDS011;36247;51.952;6.146;2023-07-13T03:37:43;13.57;;;4.90;;
29908;SDS011;36247;51.952;6.146;2023-07-13T03:40:17;10.98;;;4.38;;
29908;SDS011;36247;51.952;6.146;2023-07-13T03:42:45;18.73;;;4.93;;
29908;SDS011;36247;51.952;6.146;2023-07-13T03:45:17;7.70;;;4.40;;
29908;SDS011;36247;51.952;6.146;2023-07-13T03:47:43;12.05;;;5.82;;
29908;SDS011;36247;51.952;6.146;2023-07-13T03:50:13;16.30;;;5.05;;
29908;SDS011;36247;51.952;6.146;2023-07-13T03:52:45;11.15;;;5.05;;
29908;SDS011;36247;51.952;6.146;2023-07-13T03:55:21;11.98;;;4.90;;
29908;SDS011;36247;51.952;6.146;2023-07-13T04:01:59;12.77;;;5.70;;
29908;SDS011;36247;51.952;6.146;2023-07-13T04:08:18;20.00;;;5.75;;
29908;SDS011;36247;51.952;6.146;2023-07-13T04:10:48;13.07;;;5.20;;
29908;SDS011;36247;51.952;6.146;2023-07-13T04:13:15;8.40;;;5.40;;
29908;SDS011;36247;51.952;6.146;2023-07-13T04:15:41;12.98;;;5.47;;
29908;SDS011;36247;51.952;6.146;2023-07-13T04:18:08;11.80;;;5.32;;
29908;SDS011;36247;51.952;6.146;2023-07-13T04:20:34;16.58;;;5.85;;
29908;SDS011;36247;51.952;6.146;2023-07-13T04:23:00;15.80;;;5.68;;
29908;SDS011;36247;51.952;6.146;2023-07-13T04:25:26;12.95;;;6.50;;
29908;SDS011;36247;51.952;6.146;2023-07-13T04:27:55;16.08;;;5.63;;
29908;SDS011;36247;51.952;6.146;2023-07-13T04:30:21;11.30;;;4.80;;
29908;SDS011;36247;51.952;6.146;2023-07-13T04:32:49;13.65;;;5.68;;
29908;SDS011;36247;51.952;6.146;2023-07-13T04:35:18;13.68;;;6.47;;
29908;SDS011;36247;51.952;6.146;2023-07-13T04:37:48;15.30;;;5.63;;
29908;SDS011;36247;51.952;6.146;2023-07-13T04:40:16;13.02;;;5.65;;
29908;SDS011;36247;51.952;6.146;2023-07-13T04:42:46;21.48;;;7.45;;
29908;SDS011;36247;51.952;6.146;2023-07-13T04:45:13;16.63;;;6.45;;
29908;SDS011;36247;51.952;6.146;2023-07-13T04:47:43;14.07;;;5.90;;
29908;SDS011;36247;51.952;6.146;2023-07-13T04:50:13;19.95;;;7.03;;
29908;SDS011;36247;51.952;6.146;2023-07-13T04:52:46;20.60;;;6.75;;
29908;SDS011;36247;51.952;6.146;2023-07-13T04:55:12;17.88;;;6.05;;
29908;SDS011;36247;51.952;6.146;2023-07-13T04:57:38;13.02;;;6.53;;
29908;SDS011;36247;51.952;6.146;2023-07-13T05:00:07;14.93;;;7.32;;
29908;SDS011;36247;51.952;6.146;2023-07-13T05:02:34;16.52;;;6.93;;
29908;SDS011;36247;51.952;6.146;2023-07-13T05:07:51;19.42;;;7.30;;
29908;SDS011;36247;51.952;6.146;2023-07-13T05:10:24;20.73;;;8.07;;
29908;SDS011;36247;51.952;6.146;2023-07-13T05:12:50;19.55;;;6.55;;
29908;SDS011;36247;51.952;6.146;2023-07-13T05:15:17;20.83;;;6.63;;
29908;SDS011;36247;51.952;6.146;2023-07-13T05:17:47;20.00;;;7.32;;
29908;SDS011;36247;51.952;6.146;2023-07-13T05:20:14;16.02;;;7.85;;
29908;SDS011;36247;51.952;6.146;2023-07-13T05:22:44;18.00;;;6.85;;
29908;SDS011;36247;51.952;6.146;2023-07-13T05:25:12;20.83;;;7.15;;
29908;SDS011;36247;51.952;6.146;2023-07-13T05:27:43;16.27;;;7.70;;
29908;SDS011;36247;51.952;6.146;2023-07-13T05:30:14;14.35;;;7.32;;
29908;SDS011;36247;51.952;6.146;2023-07-13T05:32:43;22.33;;;7.20;;
29908;SDS011;36247;51.952;6.146;2023-07-13T05:35:25;25.20;;;8.15;;
29908;SDS011;36247;51.952;6.146;2023-07-13T05:44:48;35.90;;;10.10;;
29908;SDS011;36247;51.952;6.146;2023-07-13T05:47:17;14.75;;;7.95;;
29908;SDS011;36247;51.952;6.146;2023-07-13T05:49:46;20.48;;;8.05;;
29908;SDS011;36247;51.952;6.146;2023-07-13T05:52:24;23.38;;;9.35;;
29908;SDS011;36247;51.952;6.146;2023-07-13T05:55:21;30.08;;;10.02;;
29908;SDS011;36247;51.952;6.146;2023-07-13T05:58:00;29.40;;;10.68;;
29908;SDS011;36247;51.952;6.146;2023-07-13T06:00:32;27.85;;;11.18;;
29908;SDS011;36247;51.952;6.146;2023-07-13T06:02:59;33.05;;;11.50;;
29908;SDS011;36247;51.952;6.146;2023-07-13T06:05:29;27.30;;;11.93;;
29908;SDS011;36247;51.952;6.146;2023-07-13T06:07:55;29.45;;;13.13;;
29908;SDS011;36247;51.952;6.146;2023-07-13T06:10:24;26.17;;;11.63;;
29908;SDS011;36247;51.952;6.146;2023-07-13T06:12:51;25.23;;;13.27;;
29908;SDS011;36247;51.952;6.146;2023-07-13T06:15:17;27.88;;;12.57;;
29908;SDS011;36247;51.952;6.146;2023-07-13T06:17:47;32.10;;;13.13;;
29908;SDS011;36247;51.952;6.146;2023-07-13T06:20:21;33.08;;;11.98;;
29908;SDS011;36247;51.952;6.146;2023-07-13T06:22:48;32.85;;;12.77;;
29908;SDS011;36247;51.952;6.146;2023-07-13T06:25:20;29.63;;;13.60;;
29908;SDS011;36247;51.952;6.146;2023-07-13T06:27:49;30.50;;;12.65;;
29908;SDS011;36247;51.952;6.146;2023-07-13T06:30:18;42.22;;;14.35;;
29908;SDS011;36247;51.952;6.146;2023-07-13T06:32:53;32.17;;;12.75;;
29908;SDS011;36247;51.952;6.146;2023-07-13T06:36:23;34.55;;;12.93;;
29908;SDS011;36247;51.952;6.146;2023-07-13T06:38:49;28.83;;;13.93;;
29908;SDS011;36247;51.952;6.146;2023-07-13T06:41:15;27.15;;;13.85;;
29908;SDS011;36247;51.952;6.146;2023-07-13T06:43:41;27.65;;;13.45;;
29908;SDS011;36247;51.952;6.146;2023-07-13T06:46:08;28.67;;;14.02;;
29908;SDS011;36247;51.952;6.146;2023-07-13T06:48:45;30.52;;;14.52;;
29908;SDS011;36247;51.952;6.146;2023-07-13T06:51:14;36.35;;;13.57;;
29908;SDS011;36247;51.952;6.146;2023-07-13T06:53:44;33.55;;;14.75;;
29908;SDS011;36247;51.952;6.146;2023-07-13T06:56:13;27.35;;;13.73;;
29908;SDS011;36247;51.952;6.146;2023-07-13T07:01:31;26.25;;;14.65;;
29908;SDS011;36247;51.952;6.146;2023-07-13T07:04:05;33.05;;;15.18;;
29908;SDS011;36247;51.952;6.146;2023-07-13T07:06:31;35.53;;;15.45;;
29908;SDS011;36247;51.952;6.146;2023-07-13T07:08:58;36.10;;;14.25;;
29908;SDS011;36247;51.952;6.146;2023-07-13T07:11:28;39.17;;;15.60;;
29908;SDS011;36247;51.952;6.146;2023-07-13T07:13:55;28.58;;;14.93;;
29908;SDS011;36247;51.952;6.146;2023-07-13T07:16:21;31.25;;;14.60;;
29908;SDS011;36247;51.952;6.146;2023-07-13T07:18:47;28.65;;;15.63;;
29908;SDS011;36247;51.952;6.146;2023-07-13T07:21:17;30.77;;;16.58;;
29908;SDS011;36247;51.952;6.146;2023-07-13T07:23:43;34.55;;;14.88;;
29908;SDS011;36247;51.952;6.146;2023-07-13T07:26:09;31.52;;;15.90;;
29908;SDS011;36247;51.952;6.146;2023-07-13T07:28:38;29.60;;;14.93;;
29908;SDS011;36247;51.952;6.146;2023-07-13T07:31:04;32.92;;;15.10;;
29908;SDS011;36247;51.952;6.146;2023-07-13T07:33:30;26.30;;;15.05;;
29908;SDS011;36247;51.952;6.146;2023-07-13T07:35:55;30.13;;;14.88;;
29908;SDS011;36247;51.952;6.146;2023-07-13T07:38:29;34.03;;;15.95;;
29908;SDS011;36247;51.952;6.146;2023-07-13T07:40:58;29.67;;;14.88;;
29908;SDS011;36247;51.952;6.146;2023-07-13T07:43:26;33.53;;;16.25;;
29908;SDS011;36247;51.952;6.146;2023-07-13T07:45:51;37.45;;;16.80;;
29908;SDS011;36247;51.952;6.146;2023-07-13T07:48:17;32.75;;;15.35;;
29908;SDS011;36247;51.952;6.146;2023-07-13T07:50:43;34.80;;;16.23;;
29908;SDS011;36247;51.952;6.146;2023-07-13T07:53:10;40.45;;;17.55;;
29908;SDS011;36247;51.952;6.146;2023-07-13T07:55:38;33.42;;;15.52;;
29908;SDS011;36247;51.952;6.146;2023-07-13T07:58:04;37.75;;;14.93;;
29908;SDS011;36247;51.952;6.146;2023-07-13T08:00:31;24.98;;;15.45;;
29908;SDS011;36247;51.952;6.146;2023-07-13T08:02:57;24.60;;;14.02;;
29908;SDS011;36247;51.952;6.146;2023-07-13T08:05:24;39.63;;;17.27;;
29908;SDS011;36247;51.952;6.146;2023-07-13T08:07:51;41.95;;;16.92;;
29908;SDS011;36247;51.952;6.146;2023-07-13T08:10:20;28.42;;;15.40;;
29908;SDS011;36247;51.952;6.146;2023-07-13T08:12:46;31.67;;;15.18;;
29908;SDS011;36247;51.952;6.146;2023-07-13T08:15:14;26.35;;;14.10;;
29908;SDS011;36247;51.952;6.146;2023-07-13T08:17:42;28.38;;;14.93;;
29908;SDS011;36247;51.952;6.146;2023-07-13T08:20:08;34.50;;;14.73;;
29908;SDS011;36247;51.952;6.146;2023-07-13T08:22:34;34.63;;;16.35;;
29908;SDS011;36247;51.952;6.146;2023-07-13T08:25:02;30.75;;;14.60;;
29908;SDS011;36247;51.952;6.146;2023-07-13T08:27:28;27.63;;;14.70;;
29908;SDS011;36247;51.952;6.146;2023-07-13T08:29:54;31.92;;;14.30;;
29908;SDS011;36247;51.952;6.146;2023-07-13T08:32:21;28.55;;;13.75;;
29908;SDS011;36247;51.952;6.146;2023-07-13T08:34:54;40.58;;;15.23;;
29908;SDS011;36247;51.952;6.146;2023-07-13T08:37:20;32.15;;;15.35;;
29908;SDS011;36247;51.952;6.146;2023-07-13T08:39:54;24.75;;;14.18;;
29908;SDS011;36247;51.952;6.146;2023-07-13T08:42:30;23.67;;;13.68;;
29908;SDS011;36247;51.952;6.146;2023-07-13T08:47:38;22.35;;;12.35;;
29908;SDS011;36247;51.952;6.146;2023-07-13T08:50:24;27.50;;;13.95;;
29908;SDS011;36247;51.952;6.146;2023-07-13T08:52:59;22.83;;;12.90;;
29908;SDS011;36247;51.952;6.146;2023-07-13T08:55:38;21.58;;;11.93;;
29908;SDS011;36247;51.952;6.146;2023-07-13T08:58:31;26.33;;;11.93;;
29908;SDS011;36247;51.952;6.146;2023-07-13T09:01:02;26.48;;;12.57;;
29908;SDS011;36247;51.952;6.146;2023-07-13T09:03:45;23.10;;;12.25;;
29908;SDS011;36247;51.952;6.146;2023-07-13T09:06:31;28.65;;;12.93;;
29908;SDS011;36247;51.952;6.146;2023-07-13T09:15:14;22.23;;;11.98;;
29908;SDS011;36247;51.952;6.146;2023-07-13T09:17:59;18.55;;;10.95;;
29908;SDS011;36247;51.952;6.146;2023-07-13T09:20:34;20.83;;;10.65;;
29908;SDS011;36247;51.952;6.146;2023-07-13T09:23:17;22.67;;;10.88;;
29908;SDS011;36247;51.952;6.146;2023-07-13T09:25:51;21.67;;;10.25;;
29908;SDS011;36247;51.952;6.146;2023-07-13T09:28:39;19.50;;;9.55;;
29908;SDS011;36247;51.952;6.146;2023-07-13T09:31:32;18.30;;;9.30;;
29908;SDS011;36247;51.952;6.146;2023-07-13T09:34:02;19.33;;;9.45;;
29908;SDS011;36247;51.952;6.146;2023-07-13T09:36:39;19.15;;;9.27;;
29908;SDS011;36247;51.952;6.146;2023-07-13T09:42:24;16.13;;;8.65;;
29908;SDS011;36247;51.952;6.146;2023-07-13T09:50:34;16.20;;;9.73;;
29908;SDS011;36247;51.952;6.146;2023-07-13T09:52:49;16.67;;;9.50;;
29908;SDS011;36247;51.952;6.146;2023-07-13T09:55:26;19.33;;;9.82;;
29908;SDS011;36247;51.952;6.146;2023-07-13T10:00:57;19.52;;;9.63;;
29908;SDS011;36247;51.952;6.146;2023-07-13T10:03:53;18.23;;;9.45;;
29908;SDS011;36247;51.952;6.146;2023-07-13T10:06:22;25.85;;;14.35;;
29908;SDS011;36247;51.952;6.146;2023-07-13T10:08:48;27.38;;;14.95;;
29908;SDS011;36247;51.952;6.146;2023-07-13T10:16:28;21.88;;;13.95;;
29908;SDS011;36247;51.952;6.146;2023-07-13T10:19:00;19.50;;;13.52;;
29908;SDS011;36247;51.952;6.146;2023-07-13T10:21:32;16.40;;;12.55;;
29908;SDS011;36247;51.952;6.146;2023-07-13T10:24:04;13.02;;;10.75;;
29908;SDS011;36247;51.952;6.146;2023-07-13T10:26:37;17.30;;;10.73;;
29908;SDS011;36247;51.952;6.146;2023-07-13T10:29:09;19.95;;;11.82;;
29908;SDS011;36247;51.952;6.146;2023-07-13T10:31:44;15.98;;;10.98;;
29908;SDS011;36247;51.952;6.146;2023-07-13T10:34:13;17.25;;;12.07;;
29908;SDS011;36247;51.952;6.146;2023-07-13T10:36:44;17.73;;;13.95;;
29908;SDS011;36247;51.952;6.146;2023-07-13T10:39:17;21.58;;;13.98;;
29908;SDS011;36247;51.952;6.146;2023-07-13T10:41:49;24.10;;;16.15;;
29908;SDS011;36247;51.952;6.146;2023-07-13T10:44:25;19.00;;;14.93;;
29908;SDS011;36247;51.952;6.146;2023-07-13T10:46:55;21.63;;;15.15;;
29908;SDS011;36247;51.952;6.146;2023-07-13T10:49:29;29.67;;;15.52;;
29908;SDS011;36247;51.952;6.146;2023-07-13T10:52:02;23.65;;;15.45;;
29908;SDS011;36247;51.952;6.146;2023-07-13T10:59:38;16.52;;;11.70;;
29908;SDS011;36247;51.952;6.146;2023-07-13T11:04:44;19.08;;;10.10;;
29908;SDS011;36247;51.952;6.146;2023-07-13T11:07:20;13.15;;;9.77;;
29908;SDS011;36247;51.952;6.146;2023-07-13T11:09:49;19.83;;;11.07;;
29908;SDS011;36247;51.952;6.146;2023-07-13T11:17:46;19.48;;;11.65;;
29908;SDS011;36247;51.952;6.146;2023-07-13T11:23:06;21.80;;;13.35;;
29908;SDS011;36247;51.952;6.146;2023-07-13T11:25:38;19.40;;;13.57;;
29908;SDS011;36247;51.952;6.146;2023-07-13T11:28:18;19.23;;;12.57;;
29908;SDS011;36247;51.952;6.146;2023-07-13T11:33:57;16.77;;;12.32;;
29908;SDS011;36247;51.952;6.146;2023-07-13T11:36:18;16.67;;;12.20;;
29908;SDS011;36247;51.952;6.146;2023-07-13T11:41:56;18.50;;;12.10;;
29908;SDS011;36247;51.952;6.146;2023-07-13T11:44:26;19.98;;;12.15;;
29908;SDS011;36247;51.952;6.146;2023-07-13T11:46:55;15.95;;;11.98;;
29908;SDS011;36247;51.952;6.146;2023-07-13T11:49:23;16.42;;;11.50;;
29908;SDS011;36247;51.952;6.146;2023-07-13T11:51:50;25.60;;;13.32;;
29908;SDS011;36247;51.952;6.146;2023-07-13T11:54:24;12.40;;;9.80;;
29908;SDS011;36247;51.952;6.146;2023-07-13T11:59:20;9.40;;;6.40;;
29908;SDS011;36247;51.952;6.146;2023-07-13T12:01:48;10.25;;;5.72;;
29908;SDS011;36247;51.952;6.146;2023-07-13T12:04:22;10.88;;;5.80;;
29908;SDS011;36247;51.952;6.146;2023-07-13T12:07:11;10.52;;;6.05;;
29908;SDS011;36247;51.952;6.146;2023-07-13T12:09:44;8.88;;;5.80;;
29908;SDS011;36247;51.952;6.146;2023-07-13T12:12:14;11.07;;;6.13;;
29908;SDS011;36247;51.952;6.146;2023-07-13T12:14:43;10.15;;;4.47;;
29908;SDS011;36247;51.952;6.146;2023-07-13T12:17:17;6.50;;;3.58;;
29908;SDS011;36247;51.952;6.146;2023-07-13T12:19:45;7.63;;;4.57;;
29908;SDS011;36247;51.952;6.146;2023-07-13T12:22:15;9.18;;;4.03;;
29908;SDS011;36247;51.952;6.146;2023-07-13T12:24:51;7.13;;;3.97;;
29908;SDS011;36247;51.952;6.146;2023-07-13T12:27:24;7.53;;;4.25;;
29908;SDS011;36247;51.952;6.146;2023-07-13T12:30:00;8.23;;;4.03;;
29908;SDS011;36247;51.952;6.146;2023-07-13T12:32:28;7.18;;;4.82;;
29908;SDS011;36247;51.952;6.146;2023-07-13T12:35:04;7.93;;;4.72;;
29908;SDS011;36247;51.952;6.146;2023-07-13T12:37:43;6.88;;;5.22;;
29908;SDS011;36247;51.952;6.146;2023-07-13T12:40:19;15.93;;;5.47;;
29908;SDS011;36247;51.952;6.146;2023-07-13T12:42:54;9.45;;;5.40;;
29908;SDS011;36247;51.952;6.146;2023-07-13T12:45:22;10.30;;;5.40;;
29908;SDS011;36247;51.952;6.146;2023-07-13T12:47:57;7.97;;;5.25;;
29908;SDS011;36247;51.952;6.146;2023-07-13T12:50:37;8.95;;;4.60;;
29908;SDS011;36247;51.952;6.146;2023-07-13T12:53:21;8.68;;;5.07;;
29908;SDS011;36247;51.952;6.146;2023-07-13T12:55:50;8.43;;;5.20;;
29908;SDS011;36247;51.952;6.146;2023-07-13T12:58:27;10.20;;;4.38;;
29908;SDS011;36247;51.952;6.146;2023-07-13T13:01:04;8.63;;;4.60;;
29908;SDS011;36247;51.952;6.146;2023-07-13T13:08:49;11.05;;;4.97;;
29908;SDS011;36247;51.952;6.146;2023-07-13T13:11:17;8.20;;;4.53;;
29908;SDS011;36247;51.952;6.146;2023-07-13T13:13:48;9.15;;;4.53;;
29908;SDS011;36247;51.952;6.146;2023-07-13T13:16:32;9.30;;;4.40;;
29908;SDS011;36247;51.952;6.146;2023-07-13T13:21:44;11.40;;;5.20;;
29908;SDS011;36247;51.952;6.146;2023-07-13T13:24:22;5.85;;;3.45;;
29908;SDS011;36247;51.952;6.146;2023-07-13T13:26:50;6.50;;;4.20;;
29908;SDS011;36247;51.952;6.146;2023-07-13T13:29:19;4.72;;;3.47;;
29908;SDS011;36247;51.952;6.146;2023-07-13T13:31:50;7.32;;;3.80;;
29908;SDS011;36247;51.952;6.146;2023-07-13T13:34:18;8.02;;;3.47;;
29908;SDS011;36247;51.952;6.146;2023-07-13T13:36:53;7.18;;;3.92;;
29908;SDS011;36247;51.952;6.146;2023-07-13T13:39:23;8.07;;;4.07;;
29908;SDS011;36247;51.952;6.146;2023-07-13T13:41:53;8.23;;;3.80;;
29908;SDS011;36247;51.952;6.146;2023-07-13T13:44:20;8.32;;;3.97;;
29908;SDS011;36247;51.952;6.146;2023-07-13T13:46:47;8.02;;;4.00;;
29908;SDS011;36247;51.952;6.146;2023-07-13T13:49:17;8.57;;;4.00;;
29908;SDS011;36247;51.952;6.146;2023-07-13T13:51:46;6.30;;;3.72;;
29908;SDS011;36247;51.952;6.146;2023-07-13T13:54:16;5.63;;;3.38;;
29908;SDS011;36247;51.952;6.146;2023-07-13T13:56:44;9.07;;;4.70;;
29908;SDS011;36247;51.952;6.146;2023-07-13T13:59:12;12.55;;;4.22;;
29908;SDS011;36247;51.952;6.146;2023-07-13T14:01:40;7.63;;;3.38;;
29908;SDS011;36247;51.952;6.146;2023-07-13T14:04:22;6.60;;;3.97;;
29908;SDS011;36247;51.952;6.146;2023-07-13T14:06:50;6.95;;;3.72;;
29908;SDS011;36247;51.952;6.146;2023-07-13T14:09:17;9.13;;;3.58;;
29908;SDS011;36247;51.952;6.146;2023-07-13T14:11:45;10.70;;;3.83;;
29908;SDS011;36247;51.952;6.146;2023-07-13T14:14:16;6.93;;;3.67;;
29908;SDS011;36247;51.952;6.146;2023-07-13T14:16:46;8.68;;;4.28;;
29908;SDS011;36247;51.952;6.146;2023-07-13T14:19:18;8.97;;;4.10;;
29908;SDS011;36247;51.952;6.146;2023-07-13T14:21:44;11.68;;;4.47;;
29908;SDS011;36247;51.952;6.146;2023-07-13T14:24:12;5.28;;;3.08;;
29908;SDS011;36247;51.952;6.146;2023-07-13T14:26:42;7.70;;;3.30;;
29908;SDS011;36247;51.952;6.146;2023-07-13T14:29:16;5.60;;;3.03;;
29908;SDS011;36247;51.952;6.146;2023-07-13T14:31:48;5.82;;;2.72;;
29908;SDS011;36247;51.952;6.146;2023-07-13T14:34:20;6.88;;;2.88;;
29908;SDS011;36247;51.952;6.146;2023-07-13T14:36:58;5.35;;;3.00;;
29908;SDS011;36247;51.952;6.146;2023-07-13T14:39:24;6.03;;;2.95;;
29908;SDS011;36247;51.952;6.146;2023-07-13T14:41:54;7.72;;;3.28;;
29908;SDS011;36247;51.952;6.146;2023-07-13T14:44:28;8.18;;;3.47;;
29908;SDS011;36247;51.952;6.146;2023-07-13T14:46:56;5.53;;;3.10;;
29908;SDS011;36247;51.952;6.146;2023-07-13T14:49:37;6.18;;;3.00;;
29908;SDS011;36247;51.952;6.146;2023-07-13T14:52:21;6.70;;;3.40;;
29908;SDS011;36247;51.952;6.146;2023-07-13T14:54:52;5.55;;;3.17;;
29908;SDS011;36247;51.952;6.146;2023-07-13T14:57:21;6.75;;;3.38;;
29908;SDS011;36247;51.952;6.146;2023-07-13T14:59:48;7.55;;;3.35;;
29908;SDS011;36247;51.952;6.146;2023-07-13T15:02:15;9.63;;;3.90;;
29908;SDS011;36247;51.952;6.146;2023-07-13T15:05:04;6.82;;;3.47;;
29908;SDS011;36247;51.952;6.146;2023-07-13T15:07:38;5.93;;;3.10;;
29908;SDS011;36247;51.952;6.146;2023-07-13T15:10:20;5.72;;;3.42;;
29908;SDS011;36247;51.952;6.146;2023-07-13T15:12:51;5.20;;;3.40;;
29908;SDS011;36247;51.952;6.146;2023-07-13T15:15:18;7.32;;;4.15;;
29908;SDS011;36247;51.952;6.146;2023-07-13T15:17:48;6.63;;;3.28;;
29908;SDS011;36247;51.952;6.146;2023-07-13T15:22:56;9.00;;;3.75;;
29908;SDS011;36247;51.952;6.146;2023-07-13T15:25:27;10.95;;;4.60;;
29908;SDS011;36247;51.952;6.146;2023-07-13T15:28:17;5.90;;;3.60;;
29908;SDS011;36247;51.952;6.146;2023-07-13T15:30:51;5.53;;;3.50;;
29908;SDS011;36247;51.952;6.146;2023-07-13T15:33:27;5.95;;;3.13;;
29908;SDS011;36247;51.952;6.146;2023-07-13T15:36:01;6.25;;;3.30;;
29908;SDS011;36247;51.952;6.146;2023-07-13T15:38:30;6.55;;;3.67;;
29908;SDS011;36247;51.952;6.146;2023-07-13T15:40:57;7.68;;;3.28;;
29908;SDS011;36247;51.952;6.146;2023-07-13T15:43:37;4.88;;;3.05;;
29908;SDS011;36247;51.952;6.146;2023-07-13T15:46:06;7.00;;;3.33;;
29908;SDS011;36247;51.952;6.146;2023-07-13T15:48:33;6.97;;;3.63;;
29908;SDS011;36247;51.952;6.146;2023-07-13T15:51:02;7.78;;;3.63;;
29908;SDS011;36247;51.952;6.146;2023-07-13T15:53:45;7.10;;;3.40;;
29908;SDS011;36247;51.952;6.146;2023-07-13T15:56:19;10.90;;;3.20;;
29908;SDS011;36247;51.952;6.146;2023-07-13T15:58:51;6.72;;;3.30;;
29908;SDS011;36247;51.952;6.146;2023-07-13T16:01:32;10.38;;;3.67;;
29908;SDS011;36247;51.952;6.146;2023-07-13T16:03:59;6.18;;;3.47;;
29908;SDS011;36247;51.952;6.146;2023-07-13T16:06:27;10.55;;;3.30;;
29908;SDS011;36247;51.952;6.146;2023-07-13T16:09:28;8.32;;;3.53;;
29908;SDS011;36247;51.952;6.146;2023-07-13T16:12:13;5.35;;;2.90;;
29908;SDS011;36247;51.952;6.146;2023-07-13T16:18:00;7.88;;;3.03;;
29908;SDS011;36247;51.952;6.146;2023-07-13T16:20:26;5.95;;;2.80;;
29908;SDS011;36247;51.952;6.146;2023-07-13T16:22:54;6.55;;;2.50;;
29908;SDS011;36247;51.952;6.146;2023-07-13T16:30:00;5.38;;;2.60;;
29908;SDS011;36247;51.952;6.146;2023-07-13T16:32:46;4.15;;;2.80;;
29908;SDS011;36247;51.952;6.146;2023-07-13T16:35:44;7.60;;;2.90;;
29908;SDS011;36247;51.952;6.146;2023-07-13T16:38:54;3.40;;;2.50;;